This is the latest recevied weather packets stored in our database for station/object DK8HC-WX. If no packets are shown the sender has not sent any weather packets the latest 10 day(s).
| Time | Temp. | Humidity | Pressure | Rain* | Wind** | Luminosity | Snow |
|---|---|---|---|---|---|---|---|
| 1777280476 | 20.56° C | 63% | 1027.6 hPa | - | - | - | - |
| 1777279876 | 18.33° C | 64% | 1027.3 hPa | - | - | - | - |
| 1777279276 | 17.22° C | 65% | 1027.3 hPa | - | - | - | - |
| 1777278676 | 18.33° C | 60% | 1027.4 hPa | - | - | - | - |
| 1777278076 | 18.89° C | 61% | 1027.8 hPa | - | - | - | - |
| 1777277476 | 18.89° C | 60% | 1027.7 hPa | - | - | - | - |
| 1777276876 | 20° C | 62% | 1027.8 hPa | - | - | - | - |
| 1777276276 | 19.44° C | 59% | 1027.6 hPa | - | - | - | - |
| 1777275676 | 20.56° C | 58% | 1027.6 hPa | - | - | - | - |
| 1777275076 | 19.44° C | 62% | 1027.7 hPa | - | - | - | - |
| 1777274476 | 20.56° C | 65% | 1028.1 hPa | - | - | - | - |
| 1777273876 | 19.44° C | 77% | 1027.9 hPa | - | - | - | - |
| 1777273276 | 15.56° C | 85% | 1027.4 hPa | - | - | - | - |
| 1777272676 | 16.11° C | 83% | 1027.5 hPa | - | - | - | - |
| 1777272076 | 17.22° C | 86% | 1027.4 hPa | - | - | - | - |
| 1777271476 | 16.67° C | 93% | 1027 hPa | - | - | - | - |
| 1777270876 | 15° C | 100% | 1026.8 hPa | - | - | - | - |
| 1777270276 | 13.33° C | 100% | 1026.7 hPa | - | - | - | - |
| 1777269676 | 13.33° C | 100% | 1026.7 hPa | - | - | - | - |
| 1777269076 | 12.22° C | 100% | 1026.6 hPa | - | - | - | - |
| 1777268476 | 11.67° C | 100% | 1026.7 hPa | - | - | - | - |
| 1777267876 | 15° C | 100% | 1026.8 hPa | - | - | - | - |
| 1777267276 | 13.33° C | 100% | 1026.2 hPa | - | - | - | - |
| 1777266676 | 12.22° C | 100% | 1026 hPa | - | - | - | - |
| 1777266076 | 11.11° C | 100% | 1026.4 hPa | - | - | - | - |
* Rain since midnight (hover to see other rain measurements)
** Current wind speed in m/s (hover to see current wind gust speed)